Terminal Aerodrome Forecast
Issued by NWS Wilmington, OH

Current Version | Previous Version | Text Only | Print | Product List | Glossary Off
Versions: 1 2 3 4 5 6 7 8 9 10 11 12 13 14 15 16 17 18 19 20 21 22

538
FTUS41 KILN 201022 AAA
TAFDAY
TAF AMD
KDAY 201022Z 2010/2106 05008KT 2SM BR OVC004
      TEMPO 2010/2012 4SM BR OVC007
     FM201200 08007KT P6SM OVC007
     FM201400 12007KT P6SM BKN012
     FM201600 14007KT P6SM BKN045
     FM201900 15007KT P6SM VCSH BKN050
      TEMPO 2020/2022 4SM -TSRA BR BKN030CB OVC050=

USA.gov is the U.S. government's official web portal to all federal, state and local government web resources and services.